Hannover, Germany

6:54 AM CET on February 08, 2016 (GMT +0100)
Garten im Dorf | | Change Station
CLOSE
Current Station
Personal Weather Station
Location: Langenhagen, NIEDERSACHSEN
Elevation: 180 ft
Nearby Weather Stations

Elev 180 ft 52.45 °N, 9.65 °E | Updated 7 seconds ago

Mostly Cloudy
Mostly Cloudy
46.9 °F
Feels Like 43 °F
N
7.6
Wind Variable Wind from SE
Gusts 9.8 mph

Today
High -- | Low -- °F
--% Chance of Precip.
Yesterday
High -- | Low -- °F
Precip. -- in
Pressure 29.33 in
Visibility 6.2 miles
Clouds Mostly Cloudy 3400 ft
Windchill 43 °F
Dew Point 38 °F
Humidity 72%
Rainfall 0.00 in
Snow Depth Not available.
7:51 AM 5:19 PM
Waning Crescent, 0% visible
METAR EDDV 080550Z 19020KT 9999 BKN034 08/03 Q0993 TEMPO 19025G40KT
Pressure 29.33 in
Visibility 6.2 miles
Clouds Mostly Cloudy 3400 ft
Windchill 43 °F
Dew Point 38 °F
Humidity 72%
Rainfall 0.00 in
Snow Depth Not available.
7:51 AM 5:19 PM
Waning Crescent, 0% visible
METAR EDDV 080550Z 19020KT 9999 BKN034 08/03 Q0993 TEMPO 19025G40KT

10-Day Weather Forecast

Almanac

Astronomy

Feb. 08, 2016 Rise Set
Actual Time
Civil Twilight
Nautical Twilight
Astronomical Twilight
Moon
Length of Visible Light
Length of Day
Tomorrow will be .
, % of the Moon is Illuminated

Today's Extremes

Country Highs Country Lows

Community

WunderPhotos

Upload Photos

1,891,390 photos uploaded!

WunderBlog® & News

Nearby

Air Quality

  Air Quality AQ Index Pollutant
Not available.

Snow Depth

Station Depth Elevation

Earthquake Activity

City Distance Mag. Time & Date
Minimum magnitude displayed is 2.5.

Coastal Water Temperatures

Place Temperature

Stations

Nearby Weather Stations

Station Location Temp. Windchill Dew Point Humidity Wind Precip. Elev Updated Type